createdAt,value
2019-04-10T00:03:44.021Z,97423.03
2019-04-10T00:07:50.069Z,97423.31
2019-04-10T00:11:56.973Z,97426.06
2019-04-10T00:16:03.687Z,97424.37
2019-04-10T00:20:09.939Z,97423.78
2019-04-10T00:24:15.672Z,97428.02
2019-04-10T00:28:21.474Z,97418.30
2019-04-10T00:32:27.897Z,97426.20
2019-04-10T00:36:35.228Z,97421.81
2019-04-10T00:40:41.594Z,97414.38
2019-04-10T00:44:48.056Z,97413.16
2019-04-10T00:48:54.521Z,97412.55
2019-04-10T00:53:00.905Z,97418.48
2019-04-10T00:57:07.712Z,97420.44
2019-04-10T01:01:14.390Z,97419.09
2019-04-10T01:05:20.144Z,97420.59
2019-04-10T01:09:25.974Z,97411.34
2019-04-10T01:13:32.648Z,97417.56
2019-04-10T01:17:40.226Z,97405.42
2019-04-10T01:21:46.460Z,97399.77
2019-04-10T01:25:52.330Z,97399.90
2019-04-10T01:29:58.080Z,97399.77
2019-04-10T01:34:03.832Z,97400.06
2019-04-10T01:38:09.525Z,97399.61
2019-04-10T01:42:15.228Z,97397.65
2019-04-10T01:46:22.295Z,97391.44
2019-04-10T01:50:28.584Z,97397.19
2019-04-10T01:54:35.271Z,97392.80
2019-04-10T01:58:43.399Z,97389.76
2019-04-10T02:02:51.778Z,97383.99
2019-04-10T02:06:57.973Z,97388.70
2019-04-10T02:11:04.842Z,97386.28
2019-04-10T02:15:14.494Z,97390.64
2019-04-10T02:19:19.490Z,97383.83
2019-04-10T02:23:26.067Z,97384.31
2019-04-10T02:27:32.167Z,97380.05
2019-04-10T02:31:39.076Z,97381.58
2019-04-10T02:35:45.604Z,97380.80
2019-04-10T02:39:55.570Z,97380.52
2019-04-10T02:44:00.003Z,97373.37
2019-04-10T02:48:07.916Z,97374.44
2019-04-10T02:52:14.677Z,97375.02
2019-04-10T02:56:21.473Z,97377.30
2019-04-10T03:00:28.279Z,97379.70
2019-04-10T03:04:35.179Z,97381.06
2019-04-10T03:08:58.726Z,97383.20
2019-04-10T03:12:48.952Z,97384.09
2019-04-10T03:16:55.490Z,97383.02
2019-04-10T03:21:01.224Z,97386.04
2019-04-10T03:25:08.968Z,97384.56
2019-04-10T03:29:15.679Z,97378.30
2019-04-10T03:33:26.530Z,97380.42
2019-04-10T03:37:28.867Z,97381.47
2019-04-10T03:41:34.630Z,97379.03
2019-04-10T03:45:41.107Z,97381.90
2019-04-10T03:49:46.890Z,97383.88
2019-04-10T03:53:52.609Z,97385.09
2019-04-10T03:57:58.710Z,97395.09
2019-04-10T04:02:05.288Z,97394.02
2019-04-10T04:06:11.953Z,97399.80
2019-04-10T04:10:18.320Z,97404.61
2019-04-10T04:14:24.235Z,97397.79
2019-04-10T04:18:30.055Z,97390.80
2019-04-10T04:22:36.899Z,97393.52
2019-04-10T04:26:43.571Z,97399.30
2019-04-10T04:30:51.970Z,97395.92
2019-04-10T04:34:56.687Z,97401.87
2019-04-10T04:39:12.727Z,97401.81
2019-04-10T04:43:12.423Z,97399.27
2019-04-10T04:47:18.313Z,97397.29
2019-04-10T04:51:25.806Z,97400.16
2019-04-10T04:55:31.401Z,97405.17
2019-04-10T04:59:37.088Z,97410.45
2019-04-10T05:03:42.789Z,97416.50
2019-04-10T05:07:56.334Z,97418.48
2019-04-10T05:11:55.939Z,97424.25
2019-04-10T05:16:02.654Z,97430.27
2019-04-10T05:20:09.189Z,97433.94
2019-04-10T05:24:15.774Z,97434.36
2019-04-10T05:28:22.198Z,97433.62
2019-04-10T05:32:28.204Z,97445.41
2019-04-10T05:36:33.900Z,97439.34
2019-04-10T05:40:40.070Z,97443.16
2019-04-10T05:44:45.846Z,97446.81
2019-04-10T05:48:52.501Z,97454.23
2019-04-10T05:52:58.341Z,97446.67
2019-04-10T05:57:04.194Z,97450.47
2019-04-10T06:01:09.953Z,97456.69
2019-04-10T06:05:16.225Z,97460.63
2019-04-10T06:09:22.763Z,97461.23
2019-04-10T06:13:28.650Z,97465.22
2019-04-10T06:17:34.404Z,97457.62
2019-04-10T06:21:40.056Z,97460.34
2019-04-10T06:25:45.875Z,97459.12
2019-04-10T06:29:51.526Z,97460.06
2019-04-10T06:33:58.312Z,97463.29
2019-04-10T06:38:04.401Z,97455.40
2019-04-10T06:42:10.088Z,97459.20
2019-04-10T06:46:16.712Z,97452.81
2019-04-10T06:50:23.173Z,97457.52
2019-04-10T06:54:28.969Z,97457.52
2019-04-10T06:58:34.740Z,97458.88
2019-04-10T07:02:40.458Z,97461.34
2019-04-10T07:06:55.941Z,97464.72
2019-04-10T07:11:02.022Z,97468.84
2019-04-10T07:15:02.198Z,97461.09
2019-04-10T07:19:10.387Z,97463.06
2019-04-10T07:23:22.473Z,97465.33
2019-04-10T07:27:23.695Z,97470.49
2019-04-10T07:31:32.428Z,97468.38
2019-04-10T07:35:38.360Z,97469.24
2019-04-10T07:39:44.777Z,97471.39
2019-04-10T07:43:54.331Z,97478.61
2019-04-10T07:47:58.203Z,97480.55
2019-04-10T07:52:04.837Z,97484.39
2019-04-10T07:56:15.080Z,97485.00
2019-04-10T08:00:18.238Z,97493.64
2019-04-10T08:04:23.951Z,97492.42
2019-04-10T08:08:30.001Z,97499.53
2019-04-10T08:12:44.620Z,97498.09
2019-04-10T08:16:44.239Z,97492.14
2019-04-10T08:20:50.865Z,97499.53
2019-04-10T08:24:56.607Z,97501.04
2019-04-10T08:29:02.516Z,97504.80
2019-04-10T08:33:08.271Z,97508.03
2019-04-10T08:37:14.500Z,97513.20
2019-04-10T08:41:21.380Z,97502.33
2019-04-10T08:45:38.523Z,97510.52
2019-04-10T08:49:34.502Z,97518.94
2019-04-10T08:53:40.340Z,97512.92
2019-04-10T08:57:46.056Z,97513.84
2019-04-10T09:01:51.744Z,97516.57
2019-04-10T09:05:58.657Z,97512.20
2019-04-10T09:10:06.420Z,97512.66
2019-04-10T09:14:12.839Z,97507.66
2019-04-10T09:18:18.576Z,97511.33
2019-04-10T09:22:25.394Z,97521.48
2019-04-10T09:26:31.112Z,97514.33
2019-04-10T09:30:37.274Z,97523.33
2019-04-10T09:34:45.542Z,97513.76
2019-04-10T09:38:50.764Z,97519.84
2019-04-10T09:42:57.658Z,97528.63
2019-04-10T09:47:03.567Z,97528.03
2019-04-10T09:51:11.661Z,97533.31
2019-04-10T09:55:18.000Z,97531.20
2019-04-10T09:59:34.887Z,97536.20
2019-04-10T10:03:32.422Z,97534.68
2019-04-10T10:07:39.049Z,97529.84
2019-04-10T10:11:44.907Z,97525.42
2019-04-10T10:15:51.513Z,97526.81
2019-04-10T10:19:57.485Z,97524.91
2019-04-10T10:24:04.489Z,97522.86
2019-04-10T10:28:11.738Z,97517.58
2019-04-10T10:32:17.594Z,97527.47
2019-04-10T10:36:34.688Z,97529.02
2019-04-10T10:40:31.843Z,97526.60
2019-04-10T10:44:38.368Z,97528.23
2019-04-10T10:48:44.199Z,97528.77
2019-04-10T10:52:50.128Z,97530.27
2019-04-10T10:56:56.918Z,97527.80
2019-04-10T11:01:03.337Z,97529.61
2019-04-10T11:05:10.703Z,97533.27
2019-04-10T11:09:18.172Z,97531.95
2019-04-10T11:13:24.236Z,97535.12
2019-04-10T11:17:30.705Z,97528.55
2019-04-10T11:21:36.657Z,97530.89
2019-04-10T11:25:42.542Z,97530.50
2019-04-10T11:29:48.242Z,97538.02
2019-04-10T11:33:56.338Z,97533.32
2019-04-10T11:38:02.935Z,97526.45
2019-04-10T11:46:16.932Z,97534.80
2019-04-10T11:50:25.404Z,97534.38
2019-04-10T11:54:32.250Z,97532.95
2019-04-10T11:58:48.657Z,97539.70
2019-04-10T12:02:47.390Z,97533.30
2019-04-10T12:06:55.438Z,97536.60
2019-04-10T12:15:08.597Z,97545.20
2019-04-10T12:19:15.219Z,97541.31
2019-04-10T12:23:21.012Z,97541.42
2019-04-10T12:27:27.353Z,97539.73
2019-04-10T12:31:34.496Z,97542.80
2019-04-10T12:35:40.404Z,97545.35
2019-04-10T12:39:46.113Z,97542.05
2019-04-10T12:43:52.045Z,97546.64
2019-04-10T12:47:58.547Z,97536.13
2019-04-10T12:52:04.352Z,97544.28
2019-04-10T12:56:10.237Z,97543.43
2019-04-10T13:00:20.030Z,97546.13
2019-04-10T13:04:25.835Z,97548.31
2019-04-10T13:08:50.020Z,97551.43
2019-04-10T13:12:39.728Z,97551.24
2019-04-10T13:16:45.464Z,97553.58
2019-04-10T13:20:51.150Z,97552.64
2019-04-10T13:24:57.714Z,97558.83
2019-04-10T13:29:03.697Z,97559.45
2019-04-10T13:33:09.497Z,97558.83
2019-04-10T13:37:15.807Z,97559.06
2019-04-10T13:41:21.602Z,97564.41
2019-04-10T13:45:27.481Z,97555.47
2019-04-10T13:49:33.756Z,97563.88
2019-04-10T13:53:39.859Z,97561.65
2019-04-10T13:57:46.612Z,97562.42
2019-04-10T14:01:52.482Z,97554.28
2019-04-10T14:05:58.198Z,97555.56
2019-04-10T14:10:07.623Z,97554.06
2019-04-10T14:14:13.302Z,97558.48
2019-04-10T14:18:19.207Z,97558.12
2019-04-10T14:22:26.053Z,97563.67
2019-04-10T14:26:45.844Z,97570.83
2019-04-10T14:30:43.524Z,97570.33
2019-04-10T14:34:50.425Z,97575.60
2019-04-10T14:39:08.626Z,97578.27
2019-04-10T14:43:03.793Z,97580.50
2019-04-10T14:47:10.642Z,97579.56
2019-04-10T14:51:17.582Z,97587.25
2019-04-10T14:55:29.168Z,97586.57
2019-04-10T14:59:35.914Z,97596.69
2019-04-10T15:03:42.645Z,97597.95
2019-04-10T15:07:48.399Z,97598.70
2019-04-10T15:11:55.193Z,97601.80
2019-04-10T15:16:01.069Z,97595.64
2019-04-10T15:20:08.967Z,97596.62
2019-04-10T15:24:15.320Z,97600.69
2019-04-10T15:28:21.163Z,97596.55
2019-04-10T15:32:26.878Z,97599.77
2019-04-10T15:36:32.580Z,97602.66
2019-04-10T15:40:38.579Z,97597.90
2019-04-10T15:44:44.399Z,97594.84
2019-04-10T15:48:50.763Z,97600.91
2019-04-10T15:52:57.973Z,97597.95
2019-04-10T15:57:04.694Z,97605.53
2019-04-10T16:01:12.228Z,97605.90
2019-04-10T16:05:18.100Z,97611.66
2019-04-10T16:09:25.327Z,97611.08
2019-04-10T16:13:38.898Z,97614.09
2019-04-10T16:17:48.217Z,97614.00
2019-04-10T16:21:56.412Z,97615.92
2019-04-10T16:26:02.918Z,97616.52
2019-04-10T16:30:12.209Z,97614.20
2019-04-10T16:34:18.019Z,97616.73
2019-04-10T16:38:24.727Z,97623.85
2019-04-10T16:42:30.766Z,97624.63
2019-04-10T16:46:36.690Z,97634.39
2019-04-10T16:50:43.394Z,97629.84
2019-04-10T16:54:49.371Z,97633.38
2019-04-10T16:58:56.259Z,97640.88
2019-04-10T17:03:02.029Z,97639.67
2019-04-10T17:07:08.600Z,97642.14
2019-04-10T17:11:14.653Z,97653.73
2019-04-10T17:15:20.456Z,97650.83
2019-04-10T17:19:26.279Z,97653.56
2019-04-10T17:23:32.284Z,97658.88
2019-04-10T17:27:38.051Z,97659.52
2019-04-10T17:36:10.192Z,97667.30
2019-04-10T17:40:27.443Z,97672.32
2019-04-10T17:44:24.018Z,97674.00
2019-04-10T17:48:30.692Z,97671.13
2019-04-10T17:52:38.640Z,97677.52
2019-04-10T17:56:44.473Z,97685.13
2019-04-10T18:00:52.147Z,97695.16
2019-04-10T18:04:58.160Z,97693.92
2019-04-10T18:09:05.878Z,97701.08
2019-04-10T18:13:11.769Z,97702.29
2019-04-10T18:17:18.483Z,97706.53
2019-04-10T18:21:24.593Z,97715.67
2019-04-10T18:25:30.320Z,97717.95
2019-04-10T18:29:36.090Z,97717.78
2019-04-10T18:33:42.759Z,97726.16
2019-04-10T18:37:49.095Z,97729.64
2019-04-10T18:41:55.870Z,97743.76
2019-04-10T18:46:10.743Z,97745.89
2019-04-10T18:50:12.047Z,97747.87
2019-04-10T18:54:18.609Z,97752.36
2019-04-10T18:58:26.169Z,97753.73
2019-04-10T19:02:32.744Z,97756.15
2019-04-10T19:06:58.889Z,97764.65
2019-04-10T19:11:16.971Z,97768.16
2019-04-10T19:15:12.814Z,97772.85
2019-04-10T19:19:18.606Z,97770.14
2019-04-10T19:23:25.460Z,97782.88
2019-04-10T19:27:32.335Z,97781.66
2019-04-10T19:31:40.267Z,97786.20
2019-04-10T19:35:46.098Z,97787.08
2019-04-10T19:39:51.891Z,97788.65
2019-04-10T19:43:58.870Z,97789.72
2019-04-10T19:48:06.691Z,97795.21
2019-04-10T19:52:51.588Z,97794.60
2019-04-10T19:56:57.417Z,97803.08
2019-04-10T20:01:05.172Z,97803.42
2019-04-10T20:05:11.179Z,97809.94
2019-04-10T20:09:18.027Z,97817.09
2019-04-10T20:13:24.864Z,97819.94
2019-04-10T20:17:54.625Z,97818.43
2019-04-10T20:22:00.689Z,97817.94
2019-04-10T20:26:07.134Z,97817.64
2019-04-10T20:30:15.232Z,97821.13
2019-04-10T20:34:21.280Z,97811.89
2019-04-10T20:38:51.211Z,97827.85
2019-04-10T20:42:56.977Z,97817.64
2019-04-10T20:47:02.701Z,97822.65
2019-04-10T20:51:08.516Z,97829.63
2019-04-10T20:55:14.357Z,97822.75
2019-04-10T20:59:20.065Z,97823.80
2019-04-10T21:03:25.766Z,97831.24
2019-04-10T21:07:31.888Z,97833.08
2019-04-10T21:12:02.046Z,97832.80
2019-04-10T21:16:00.725Z,97835.95
2019-04-10T21:20:09.707Z,97837.89
2019-04-10T21:24:16.563Z,97839.05
2019-04-10T21:28:22.616Z,97851.16
2019-04-10T21:32:35.884Z,97853.33
2019-04-10T21:36:51.190Z,97858.30
2019-04-10T21:40:57.349Z,97857.69
2019-04-10T21:45:03.249Z,97854.23
2019-04-10T21:49:09.054Z,97859.96
2019-04-10T21:53:14.793Z,97862.95
2019-04-10T21:57:20.612Z,97868.84
2019-04-10T22:01:26.879Z,97867.64
2019-04-10T22:05:51.016Z,97874.94
2019-04-10T22:10:13.372Z,97879.02
2019-04-10T22:14:21.481Z,97875.73
2019-04-10T22:18:51.995Z,97876.56
2019-04-10T22:22:57.724Z,97881.13
2019-04-10T22:27:03.506Z,97882.45
2019-04-10T22:31:09.628Z,97893.51
2019-04-10T22:35:15.455Z,97904.42
2019-04-10T22:39:21.159Z,97910.89
2019-04-10T22:43:28.085Z,97906.01
2019-04-10T22:47:35.889Z,97911.23
2019-04-10T22:51:41.862Z,97914.88
2019-04-10T22:55:48.533Z,97919.80
2019-04-10T22:59:55.304Z,97917.79
2019-04-10T23:04:01.747Z,97924.38
2019-04-10T23:08:09.445Z,97919.66
2019-04-10T23:12:16.195Z,97926.42
2019-04-10T23:16:22.225Z,97920.63
2019-04-10T23:20:27.960Z,97927.94
2019-04-10T23:24:33.842Z,97927.30
2019-04-10T23:28:39.851Z,97930.25
2019-04-10T23:32:45.965Z,97934.23
2019-04-10T23:36:51.667Z,97934.79
2019-04-10T23:40:57.397Z,97941.83
2019-04-10T23:45:03.363Z,97946.73
2019-04-10T23:49:09.061Z,97947.28
2019-04-10T23:53:14.752Z,97952.02
2019-04-10T23:57:21.179Z,97954.62
